Welcome to Northern Hawkes Bay. New Zealand.
PWS Header
      nz Flag



Hit Counter


W3C Valid W3C Valid logo


    Wairoa

Select any of the Stations below to visit their websites.










Historic Data from Weather Underground
Select the location of interest below. Wairoa is the default. Please have patience, this Data is slow to load in.
Northern Hawkes Bay Historical Data
Daily Summary for January 8, 2017 Units:  English    Metric   Both
« Previous Day
Next Day »
Daily Weekly Monthly Yearly Custom
  High: Low: Average:
Temperature: 78.1 °F 51.4 °F 63.9 °F
Dew Point: 55.9 °F 42.4 °F 50.7 °F
Humidity: 99% 28% 66%
Wind Speed: 13mph 0mph 3.4mph
Wind Gust: 17.4mph - -
Wind- - WSW
Pressure: 29.8 in 29.7 in -
Precipitation: 0 in    
Historical Graphs
 
 
Tabular Data for January 8, 2017
Time Temperature Dew Point Pressure Wind Wind Speed Wind Gust Humidity Rainfall Rate (Hourly) solar
00:08 60.6 °F 55.8 °F 29.7 in North 2.2 mph 3.8 mph 84% 0 in 0 W/m2
00:13 60.4 °F 55.6 °F 29.7 in North 2.2 mph 5.4 mph 84% 0 in 0 W/m2
00:18 60.4 °F 55.6 °F 29.7 in North 1.6 mph 5.4 mph 84% 0 in 0 W/m2
00:23 60.4 °F 55.6 °F 29.7 in North 3.1 mph 5.4 mph 84% 0 in 0 W/m2
00:28 60.4 °F 55.6 °F 29.7 in NNW 1.6 mph 5.4 mph 84% 0 in 0 W/m2
00:33 60.4 °F 55.6 °F 29.7 in NNW 1.6 mph 5.4 mph 84% 0 in 0 W/m2
00:38 60.4 °F 55.6 °F 29.7 in NNW 0.7 mph 4.5 mph 84% 0 in 0 W/m2
00:43 60.4 °F 55.6 °F 29.7 in NW 2.2 mph 4.5 mph 84% 0 in 0 W/m2
00:48 60.3 °F 55.4 °F 29.7 in NW 3.8 mph 5.4 mph 84% 0 in 0 W/m2
00:53 60.3 °F 55.4 °F 29.7 in NW 3.1 mph 5.4 mph 84% 0 in 0 W/m2
00:58 59.9 °F 55 °F 29.7 in NW 2.2 mph 5.4 mph 84% 0 in 0 W/m2
01:03 59.7 °F 54.9 °F 29.7 in NW 2.2 mph 4.5 mph 84% 0 in 0 W/m2
01:08 59.5 °F 54.7 °F 29.7 in NW 1.6 mph 4.5 mph 84% 0 in 0 W/m2
01:13 59.4 °F 54.9 °F 29.7 in NW 1.6 mph 3.8 mph 85% 0 in 0 W/m2
01:18 59.2 °F 54.7 °F 29.7 in WNW 1.6 mph 3.8 mph 85% 0 in 0 W/m2
01:23 59 °F 54.5 °F 29.7 in WNW 2.2 mph 3.1 mph 85% 0 in 0 W/m2
01:28 59 °F 54.5 °F 29.7 in NW 2.2 mph 3.8 mph 85% 0 in 0 W/m2
01:33 58.6 °F 54.5 °F 29.7 in NNW 1.6 mph 3.8 mph 86% 0 in 0 W/m2
01:38 58.5 °F 54.7 °F 29.7 in North 1.6 mph 3.8 mph 87% 0 in 0 W/m2
01:43 58.3 °F 54.3 °F 29.7 in North 1.6 mph 3.1 mph 87% 0 in 0 W/m2
01:48 58.1 °F 54.7 °F 29.7 in North 2.2 mph 4.5 mph 88% 0 in 0 W/m2
01:53 58.1 °F 54.7 °F 29.7 in NNW 2.2 mph 4.5 mph 88% 0 in 0 W/m2
01:58 58.1 °F 54.7 °F 29.7 in NW 2.2 mph 3.8 mph 88% 0 in 0 W/m2
02:03 58.1 °F 54.7 °F 29.7 in NW 2.2 mph 3.8 mph 88% 0 in 0 W/m2
02:08 57.7 °F 54 °F 29.7 in NW 3.1 mph 5.4 mph 87% 0 in 0 W/m2
02:13 57.6 °F 53.8 °F 29.7 in NW 0.7 mph 5.4 mph 87% 0 in 0 W/m2
02:18 57.4 °F 54 °F 29.7 in NW 0.7 mph 3.8 mph 88% 0 in 0 W/m2
02:23 57 °F 53.8 °F 29.7 in Calm   3.1 mph 89% 0 in 0 W/m2
02:28 56.8 °F 53.6 °F 29.7 in NW 0.7 mph 2.2 mph 89% 0 in 0 W/m2
02:33 56.5 °F 53.2 °F 29.7 in NNW 1.6 mph 3.1 mph 89% 0 in 0 W/m2
02:38 56.5 °F 53.6 °F 29.7 in North 1.6 mph 3.1 mph 90% 0 in 0 W/m2
02:43 56.3 °F 53.8 °F 29.7 in NNW 1.6 mph 3.8 mph 91% 0 in 0 W/m2
02:48 56.1 °F 53.8 °F 29.7 in NNW 3.1 mph 4.5 mph 92% 0 in 0 W/m2
02:53 56.1 °F 53.8 °F 29.7 in NNW 2.2 mph 4.5 mph 92% 0 in 0 W/m2
02:59 55.9 °F 53.8 °F 29.7 in NNW 3.1 mph 5.4 mph 92% 0 in 0 W/m2
03:04 55.6 °F 53.2 °F 29.7 in NNW 1.6 mph 5.4 mph 92% 0 in 0 W/m2
03:09 55.4 °F 53.1 °F 29.7 in NW 1.6 mph 4.5 mph 92% 0 in 0 W/m2
03:14 55.2 °F 53.2 °F 29.7 in NW 2.2 mph 3.8 mph 93% 0 in 0 W/m2
03:19 55 °F 53.1 °F 29.7 in NW 1.6 mph 3.1 mph 93% 0 in 0 W/m2
03:24 54.9 °F 52.9 °F 29.7 in NNW 1.6 mph 3.8 mph 93% 0 in 0 W/m2
03:29 54.7 °F 52.7 °F 29.7 in NNW 1.6 mph 3.8 mph 93% 0 in 0 W/m2
03:34 54.5 °F 52.9 °F 29.7 in NNW 1.6 mph 3.1 mph 94% 0 in 0 W/m2
03:39 54.5 °F 52.9 °F 29.7 in NNW 2.2 mph 3.1 mph 94% 0 in 0 W/m2
03:44 54.3 °F 52.5 °F 29.7 in NNW 0.7 mph 3.1 mph 94% 0 in 0 W/m2
03:49 54.1 °F 52.5 °F 29.7 in NW 1.6 mph 3.1 mph 94% 0 in 0 W/m2
03:54 54 °F 52.3 °F 29.7 in NNW 0.7 mph 3.1 mph 94% 0 in 0 W/m2
03:59 53.8 °F 52.2 °F 29.7 in NNW 1.6 mph 3.1 mph 94% 0 in 0 W/m2
04:04 53.6 °F 52 °F 29.7 in NNW 0.7 mph 3.1 mph 94% 0 in 0 W/m2
04:09 53.4 °F 52 °F 29.7 in NNW 1.6 mph 3.1 mph 95% 0 in 0 W/m2
04:14 53.2 °F 52.2 °F 29.7 in Calm   2.2 mph 96% 0 in 0 W/m2
04:19 53.1 °F 52 °F 29.7 in Calm   2.2 mph 96% 0 in 0 W/m2
04:24 53.1 °F 52 °F 29.7 in NW 1.6 mph 2.2 mph 96% 0 in 0 W/m2
04:29 53.1 °F 52 °F 29.7 in NW 1.6 mph 2.2 mph 96% 0 in 0 W/m2
04:34 52.9 °F 51.8 °F 29.7 in NW 1.6 mph 2.2 mph 96% 0 in 0 W/m2
04:39 52.9 °F 51.8 °F 29.7 in NNW 0.7 mph 2.2 mph 96% 0 in 0 W/m2
04:44 52.7 °F 51.6 °F 29.7 in NW 0.7 mph 2.2 mph 96% 0 in 0 W/m2
04:49 52.7 °F 51.6 °F 29.7 in NW 0.7 mph 2.2 mph 96% 0 in 0 W/m2
04:54 52.5 °F 51.4 °F 29.7 in WNW 1.6 mph 3.1 mph 96% 0 in 0 W/m2
04:59 52.5 °F 51.6 °F 29.7 in WNW 2.2 mph 4.5 mph 97% 0 in 0 W/m2
05:04 52.3 °F 51.4 °F 29.7 in WNW 2.2 mph 4.5 mph 97% 0 in 0 W/m2
05:09 52.3 °F 51.4 °F 29.7 in NW 2.2 mph 3.8 mph 97% 0 in 0 W/m2
05:14 52.2 °F 51.3 °F 29.7 in NW 2.2 mph 3.1 mph 97% 0 in 0 W/m2
05:19 52 °F 51.3 °F 29.7 in NNW 0.7 mph 3.1 mph 97% 0 in 0 W/m2
05:25 52 °F 51.4 °F 29.7 in NNW 1.6 mph 3.1 mph 98% 0 in 0 W/m2
05:30 52.2 °F 51.6 °F 29.7 in NNW 1.6 mph 3.8 mph 98% 0 in 0 W/m2
05:35 52.2 °F 51.6 °F 29.7 in NNW 1.6 mph 3.8 mph 98% 0 in 0 W/m2
05:41 52.2 °F 51.6 °F 29.7 in North 0.7 mph 3.1 mph 98% 0 in 0 W/m2
05:46 52 °F 51.4 °F 29.7 in Calm   3.1 mph 98% 0 in 0 W/m2
05:51 51.8 °F 51.3 °F 29.7 in Calm   1.6 mph 98% 0 in 0 W/m2
05:56 51.8 °F 51.3 °F 29.7 in NNE 0.7 mph 3.1 mph 98% 0 in 2 W/m2
06:01 51.6 °F 51.4 °F 29.7 in North 1.6 mph 3.1 mph 99% 0 in 4 W/m2
06:06 51.6 °F 51.4 °F 29.7 in NNW 2.2 mph 3.8 mph 99% 0 in 8 W/m2
06:11 51.4 °F 51.3 °F 29.7 in NNW 1.6 mph 4.5 mph 99% 0 in 13 W/m2
06:16 51.4 °F 51.3 °F 29.7 in NNW 2.2 mph 4.5 mph 99% 0 in 17 W/m2
06:21 51.6 °F 51.4 °F 29.7 in NNW 3.1 mph 4.5 mph 99% 0 in 20 W/m2
06:26 51.6 °F 51.4 °F 29.7 in NNW 1.6 mph 4.5 mph 99% 0 in 23 W/m2
06:31 51.6 °F 51.4 °F 29.7 in NNW 1.6 mph 3.8 mph 99% 0 in 27 W/m2
06:36 51.6 °F 51.4 °F 29.7 in NW 1.6 mph 3.8 mph 99% 0 in 34 W/m2
06:41 51.8 °F 51.3 °F 29.7 in NNW 1.6 mph 3.8 mph 98% 0 in 35 W/m2
06:46 52 °F 51.3 °F 29.7 in NNW 3.1 mph 3.8 mph 97% 0 in 35 W/m2
06:51 52 °F 51.3 °F 29.7 in NNW 3.1 mph 5.4 mph 97% 0 in 56 W/m2
06:56 52.7 °F 51.6 °F 29.7 in NNW 2.2 mph 5.4 mph 96% 0 in 101 W/m2
07:01 53.8 °F 52.2 °F 29.7 in NNW 2.2 mph 4.5 mph 94% 0 in 111 W/m2
07:06 54.7 °F 52.3 °F 29.7 in NNW 2.2 mph 4.5 mph 92% 0 in 113 W/m2
07:11 55.4 °F 52.2 °F 29.7 in NNW 3.1 mph 5.4 mph 89% 0 in 71 W/m2
07:16 55.6 °F 51.8 °F 29.7 in NNW 3.1 mph 5.4 mph 87% 0 in 129 W/m2
07:21 56.3 °F 52.2 °F 29.7 in NNW 3.8 mph 6 mph 86% 0 in 176 W/m2
07:26 57.2 °F 51.8 °F 29.7 in NNW 2.2 mph 6 mph 82% 0 in 174 W/m2
07:31 57.9 °F 51.4 °F 29.7 in NNW 3.1 mph 6 mph 79% 0 in 192 W/m2
07:36 58.8 °F 52 °F 29.7 in NW 5.4 mph 7.6 mph 78% 0 in 229 W/m2
07:41 58.3 °F 51.1 °F 29.7 in NW 2.2 mph 8.3 mph 77% 0 in 202 W/m2
07:46 59 °F 51.4 °F 29.7 in NNW 3.1 mph 8.3 mph 76% 0 in 180 W/m2
07:51 58.6 °F 50.7 °F 29.7 in North 3.8 mph 6 mph 75% 0 in 188 W/m2
07:56 58.6 °F 51.4 °F 29.7 in NNW 3.1 mph 6 mph 77% 0 in 170 W/m2
08:01 58.8 °F 51.3 °F 29.7 in NNW 1.6 mph 5.4 mph 76% 0 in 163 W/m2
08:06 58.8 °F 51.3 °F 29.8 in NNW 0.7 mph 4.5 mph 76% 0 in 156 W/m2
08:11 59.2 °F 50.9 °F 29.8 in Calm   3.8 mph 74% 0 in 158 W/m2
08:16 59.5 °F 51.3 °F 29.8 in NNE 0.7 mph 3.1 mph 74% 0 in 158 W/m2
08:21 59.7 °F 51.4 °F 29.8 in Calm   3.8 mph 74% 0 in 159 W/m2
08:26 60.3 °F 51.6 °F 29.8 in North 3.1 mph 4.5 mph 73% 0 in 182 W/m2
08:31 60.3 °F 51.3 °F 29.8 in North 1.6 mph 4.5 mph 72% 0 in 318 W/m2
08:32 60.4 °F 51.4 °F 29.8 in North 2.2 mph 4.5 mph 72% 0 in 334 W/m2
08:37 61.7 °F 50.5 °F 29.8 in NNW 3.1 mph 5.4 mph 67% 0 in 378 W/m2
08:42 62.8 °F 50.4 °F 29.8 in North 2.2 mph 6 mph 64% 0 in 451 W/m2
08:47 63.9 °F 51.1 °F 29.8 in NNW 2.2 mph 6 mph 63% 0 in 393 W/m2
08:52 64 °F 49.5 °F 29.8 in NW 4.5 mph 6 mph 59% 0 in 481 W/m2
08:57 64.4 °F 49.3 °F 29.8 in NW 3.1 mph 6 mph 58% 0 in 473 W/m2
09:02 64.9 °F 49.8 °F 29.8 in NW 2.2 mph 5.4 mph 58% 0 in 417 W/m2
09:07 66 °F 50.4 °F 29.8 in NW 1.6 mph 5.4 mph 57% 0 in 480 W/m2
09:13 67.1 °F 49.8 °F 29.8 in NW 0.7 mph 5.4 mph 54% 0 in 449 W/m2
09:18 68.4 °F 48.9 °F 29.8 in NW 5.4 mph 6.9 mph 50% 0 in 468 W/m2
09:23 66.9 °F 48.2 °F 29.8 in NNW 2.2 mph 6.9 mph 51% 0 in 492 W/m2
09:28 67.5 °F 48.7 °F 29.8 in West 2.2 mph 6.9 mph 51% 0 in 510 W/m2
09:33 66.9 °F 45.5 °F 29.8 in SSW 3.8 mph 12.1 mph 46% 0 in 552 W/m2
09:39 66.4 °F 45 °F 29.8 in SW 8.3 mph 12.1 mph 46% 0 in 522 W/m2
09:44 65.7 °F 46 °F 29.8 in SW 6.9 mph 14.5 mph 49% 0 in 430 W/m2
09:49 65.1 °F 46 °F 29.8 in SSW 4.5 mph 14.5 mph 50% 0 in 388 W/m2
09:54 64.8 °F 46.2 °F 29.8 in SSW 5.4 mph 10.7 mph 51% 0 in 543 W/m2
09:59 65.7 °F 46.6 °F 29.8 in SW 3.8 mph 9.2 mph 50% 0 in 474 W/m2
10:04 66.2 °F 46 °F 29.8 in SSW 4.5 mph 6.9 mph 48% 0 in 713 W/m2
10:09 66.6 °F 46.2 °F 29.8 in SW 3.1 mph 6.9 mph 48% 0 in 663 W/m2
10:14 66.9 °F 46.6 °F 29.8 in SW 4.5 mph 9.8 mph 48% 0 in 829 W/m2
10:19 66.9 °F 45.5 °F 29.8 in WSW 3.8 mph 13.6 mph 46% 0 in 726 W/m2
10:24 66.4 °F 45 °F 29.8 in WSW 6.9 mph 13.6 mph 46% 0 in 660 W/m2
10:29 66.4 °F 46 °F 29.8 in SW 3.1 mph 13 mph 48% 0 in 686 W/m2
10:34 66.9 °F 46 °F 29.8 in West 3.8 mph 9.8 mph 47% 0 in 690 W/m2
10:39 68.4 °F 46.2 °F 29.8 in NW 6.9 mph 8.3 mph 45% 0 in 830 W/m2
10:44 68.5 °F 45.9 °F 29.8 in NW 6 mph 11.4 mph 44% 0 in 682 W/m2
10:49 68.4 °F 45.7 °F 29.8 in NW 2.2 mph 11.4 mph 44% 0 in 834 W/m2
10:54 69.8 °F 46.2 °F 29.8 in WNW 1.6 mph 10.7 mph 43% 0 in 901 W/m2
10:59 69.8 °F 45.7 °F 29.8 in SSW 6.9 mph 13 mph 42% 0 in 936 W/m2
11:04 69.8 °F 47.5 °F 29.8 in SW 9.2 mph 14.5 mph 45% 0 in 853 W/m2
11:09 68.2 °F 45.5 °F 29.8 in SW 7.6 mph 15.2 mph 44% 0 in 840 W/m2
11:14 67.6 °F 46.8 °F 29.8 in SW 8.3 mph 15.2 mph 47% 0 in 883 W/m2
11:19 68 °F 45.9 °F 29.8 in SW 4.5 mph 13.6 mph 45% 0 in 885 W/m2
11:24 68.4 °F 46.2 °F 29.8 in SW 6.9 mph 15.2 mph 45% 0 in 888 W/m2
11:29 68.7 °F 46.6 °F 29.8 in SSW 9.2 mph 15.2 mph 45% 0 in 896 W/m2
11:34 68.2 °F 46.6 °F 29.8 in South 9.2 mph 14.5 mph 46% 0 in 896 W/m2
11:39 68.2 °F 47.1 °F 29.8 in South 7.6 mph 14.5 mph 47% 0 in 901 W/m2
11:44 68.9 °F 48.4 °F 29.8 in SSW 5.4 mph 13.6 mph 48% 0 in 907 W/m2
11:49 69.3 °F 46.9 °F 29.8 in SSW 9.2 mph 15.9 mph 45% 0 in 914 W/m2
11:54 69.1 °F 48.6 °F 29.8 in SW 8.3 mph 15.9 mph 48% 0 in 914 W/m2
11:59 69.8 °F 46.9 °F 29.8 in SSW 12.1 mph 17.4 mph 44% 0 in 916 W/m2
12:04 69.3 °F 46.4 °F 29.8 in SW 9.2 mph 17.4 mph 44% 0 in 918 W/m2
12:09 68.9 °F 46.8 °F 29.8 in SW 9.2 mph 17.4 mph 45% 0 in 919 W/m2
12:14 69.1 °F 46.2 °F 29.8 in SW 9.8 mph 15.9 mph 44% 0 in 919 W/m2
12:19 69.3 °F 46.9 °F 29.7 in SW 13 mph 17.4 mph 45% 0 in 922 W/m2
12:24 69.3 °F 46.9 °F 29.8 in SW 7.6 mph 17.4 mph 45% 0 in 924 W/m2
12:29 69.1 °F 46.2 °F 29.8 in WSW 8.3 mph 17.4 mph 44% 0 in 924 W/m2
12:34 69.4 °F 46.6 °F 29.8 in WSW 10.7 mph 17.4 mph 44% 0 in 926 W/m2
12:39 70 °F 46.6 °F 29.7 in SW 11.4 mph 14.5 mph 43% 0 in 931 W/m2
12:44 70.7 °F 46.6 °F 29.8 in SW 10.7 mph 15.2 mph 42% 0 in 933 W/m2
12:49 70 °F 45.9 °F 29.7 in SW 10.7 mph 16.8 mph 42% 0 in 931 W/m2
12:54 69.8 °F 48 °F 29.7 in SSW 6 mph 16.8 mph 46% 0 in 933 W/m2
12:59 70.3 °F 46.8 °F 29.7 in South 8.3 mph 15.2 mph 43% 0 in 932 W/m2
13:04 70 °F 47.1 °F 29.7 in South 9.2 mph 15.2 mph 44% 0 in 930 W/m2
13:09 70 °F 47.7 °F 29.7 in South 9.8 mph 13 mph 45% 0 in 930 W/m2
13:14 70.2 °F 49.6 °F 29.7 in South 7.6 mph 13 mph 48% 0 in 928 W/m2
13:19 70.3 °F 48 °F 29.7 in SSW 6.9 mph 13 mph 45% 0 in 927 W/m2
13:24 70 °F 48.9 °F 29.7 in SSW 5.4 mph 13 mph 47% 0 in 924 W/m2
13:29 70 °F 47.1 °F 29.7 in SSW 9.8 mph 13.6 mph 44% 0 in 919 W/m2
13:34 70.2 °F 47.8 °F 29.7 in SSW 5.4 mph 13.6 mph 45% 0 in 919 W/m2
13:39 70.2 °F 47.8 °F 29.7 in South 7.6 mph 13.6 mph 45% 0 in 917 W/m2
13:44 69.8 °F 48.7 °F 29.7 in South 6 mph 12.1 mph 47% 0 in 904 W/m2
13:49 70.3 °F 49.6 °F 29.7 in South 5.4 mph 12.1 mph 48% 0 in 888 W/m2
13:54 70.5 °F 48.2 °F 29.7 in South 8.3 mph 12.1 mph 45% 0 in 861 W/m2
14:12 70.3 °F 49.6 °F 29.7 in South 6.9 mph 13.6 mph 48% 0 in 890 W/m2
14:17 70.7 °F 50.2 °F 29.7 in South 6 mph 11.4 mph 48% 0 in 862 W/m2
14:22 70 °F 50 °F 29.7 in South 6 mph 12.1 mph 49% 0 in 869 W/m2
14:28 70.3 °F 49.6 °F 29.7 in South 7.6 mph 12.1 mph 48% 0 in 853 W/m2
14:34 70.2 °F 50.2 °F 29.7 in South 6 mph 10.7 mph 49% 0 in 856 W/m2
14:39 70.7 °F 49.5 °F 29.7 in South 7.6 mph 10.7 mph 47% 0 in 842 W/m2
14:44 70.7 °F 49.5 °F 29.7 in South 7.6 mph 10.7 mph 47% 0 in 833 W/m2
14:49 71.2 °F 49.5 °F 29.7 in South 6 mph 10.7 mph 46% 0 in 834 W/m2
14:54 71.2 °F 49.5 °F 29.7 in South 6 mph 11.4 mph 46% 0 in 828 W/m2
14:59 72 °F 49.5 °F 29.7 in South 4.5 mph 11.4 mph 45% 0 in 822 W/m2
15:04 72.5 °F 48 °F 29.7 in South 6.9 mph 10.7 mph 42% 0 in 816 W/m2
15:09 72.3 °F 48.6 °F 29.7 in South 5.4 mph 11.4 mph 43% 0 in 807 W/m2
15:14 73.2 °F 50 °F 29.7 in SSE 3.8 mph 11.4 mph 44% 0 in 799 W/m2
15:19 73.9 °F 51.3 °F 29.7 in SSE 3.1 mph 9.8 mph 45% 0 in 768 W/m2
15:24 73.4 °F 48.4 °F 29.7 in South 6.9 mph 9.8 mph 41% 0 in 748 W/m2
15:29 72.9 °F 47.8 °F 29.7 in South 6.9 mph 10.7 mph 41% 0 in 761 W/m2
15:34 73.2 °F 48 °F 29.7 in South 4.5 mph 10.7 mph 41% 0 in 757 W/m2
15:39 73.8 °F 48 °F 29.7 in South 9.2 mph 11.4 mph 40% 0 in 811 W/m2
15:44 73.4 °F 48.9 °F 29.7 in SSW 6 mph 11.4 mph 42% 0 in 821 W/m2
15:49 73.4 °F 46.9 °F 29.7 in South 4.5 mph 9.8 mph 39% 0 in 733 W/m2
15:54 73.9 °F 46.8 °F 29.7 in South 4.5 mph 9.2 mph 38% 0 in 762 W/m2
15:59 74.3 °F 47.1 °F 29.7 in South 4.5 mph 9.8 mph 38% 0 in 729 W/m2
16:04 74.1 °F 46.2 °F 29.7 in South 3.8 mph 9.8 mph 37% 0 in 725 W/m2
16:09 74.8 °F 46 °F 29.7 in South 6 mph 9.8 mph 36% 0 in 709 W/m2
16:14 75.2 °F 45.7 °F 29.7 in South 4.5 mph 9.8 mph 35% 0 in 686 W/m2
16:19 76.8 °F 46.4 °F 29.7 in South 3.8 mph 9.8 mph 34% 0 in 665 W/m2
16:24 76.1 °F 46.6 °F 29.7 in SSE 5.4 mph 6.9 mph 35% 0 in 652 W/m2
16:29 77.4 °F 47.7 °F 29.7 in SSE 3.8 mph 6.9 mph 35% 0 in 590 W/m2
16:34 77.9 °F 47.3 °F 29.7 in SSE 2.2 mph 6 mph 34% 0 in 614 W/m2
16:39 77.5 °F 45.3 °F 29.7 in SSE 4.5 mph 6 mph 32% 0 in 415 W/m2
16:44 76.3 °F 43.5 °F 29.7 in South 5.4 mph 6.9 mph 31% 0 in 370 W/m2
17:01 76.1 °F 46.6 °F 29.7 in SSE 3.1 mph 7.6 mph 35% 0 in 630 W/m2
17:06 77.7 °F 43.9 °F 29.7 in SSE 2.2 mph 6 mph 30% 0 in 567 W/m2
17:11 77.9 °F 44.1 °F 29.7 in SE 1.6 mph 6.9 mph 30% 0 in 396 W/m2
17:16 78.1 °F 42.4 °F 29.7 in SSE 5.4 mph 6.9 mph 28% 0 in 519 W/m2
17:21 77.2 °F 44.2 °F 29.7 in South 4.5 mph 7.6 mph 31% 0 in 506 W/m2
17:26 77.7 °F 46.4 °F 29.7 in South 3.1 mph 7.6 mph 33% 0 in 491 W/m2
17:31 77.4 °F 44.4 °F 29.7 in SSE 3.1 mph 6.9 mph 31% 0 in 555 W/m2
17:36 77.4 °F 46.8 °F 29.7 in SSE 2.2 mph 6.9 mph 34% 0 in 183 W/m2
17:41 74.8 °F 47.7 °F 29.7 in SSE 3.1 mph 6.9 mph 38% 0 in 173 W/m2
17:46 72.7 °F 47.7 °F 29.7 in SE 2.2 mph 6 mph 41% 0 in 440 W/m2
17:51 72.9 °F 50.9 °F 29.7 in SE 2.2 mph 6 mph 46% 0 in 465 W/m2
17:56 75.6 °F 52.2 °F 29.7 in ESE 1.6 mph 6 mph 44% 0 in 419 W/m2
18:01 77.2 °F 53.1 °F 29.7 in SE 3.1 mph 5.4 mph 43% 0 in 455 W/m2
18:06 77.2 °F 53.1 °F 29.7 in SE 4.5 mph 6 mph 43% 0 in 270 W/m2
18:11 75.9 °F 53.1 °F 29.7 in SE 2.2 mph 6 mph 45% 0 in 284 W/m2
18:16 75.2 °F 53.1 °F 29.7 in SSE 0.7 mph 6 mph 46% 0 in 400 W/m2
18:21 75.7 °F 53.4 °F 29.7 in SSE 3.1 mph 5.4 mph 46% 0 in 393 W/m2
18:26 76.5 °F 53.6 °F 29.7 in SE 3.8 mph 6 mph 45% 0 in 329 W/m2
18:31 75 °F 53.4 °F 29.7 in SSE 3.1 mph 6 mph 47% 0 in 129 W/m2
18:36 72 °F 51.8 °F 29.7 in SSE 3.1 mph 6 mph 49% 0 in 115 W/m2
18:41 70.7 °F 52.2 °F 29.7 in SE 2.2 mph 6.9 mph 52% 0 in 133 W/m2
18:46 70.5 °F 52.5 °F 29.7 in SSE 3.8 mph 7.6 mph 53% 0 in 130 W/m2
18:51 69.8 °F 52.9 °F 29.7 in SSE 3.8 mph 9.2 mph 55% 0 in 199 W/m2
18:56 69.8 °F 52.3 °F 29.7 in SSE 3.1 mph 9.2 mph 54% 0 in 133 W/m2
19:01 70.3 °F 50.7 °F 29.7 in SE 3.1 mph 6.9 mph 50% 0 in 113 W/m2
19:06 70.5 °F 51.4 °F 29.7 in SSE 4.5 mph 6.9 mph 51% 0 in 96 W/m2
19:11 69.4 °F 54 °F 29.7 in SSE 1.6 mph 6.9 mph 58% 0 in 83 W/m2
19:16 68.7 °F 55.2 °F 29.7 in SSE 6 mph 6.9 mph 62% 0 in 64 W/m2
19:21 68.4 °F 54.3 °F 29.7 in South 1.6 mph 6.9 mph 61% 0 in 50 W/m2
19:26 67.5 °F 52.7 °F 29.7 in South 3.1 mph 6.9 mph 59% 0 in 76 W/m2
19:31 68.2 °F 54.7 °F 29.7 in South 2.2 mph 4.5 mph 62% 0 in 67 W/m2
19:36 68.2 °F 55 °F 29.7 in SSE 1.6 mph 4.5 mph 63% 0 in 53 W/m2
19:42 68.7 °F 55.6 °F 29.7 in Calm   3.1 mph 63% 0 in 89 W/m2
19:47 69.6 °F 55.9 °F 29.7 in South 1.6 mph 3.1 mph 62% 0 in 61 W/m2
19:52 70 °F 55 °F 29.7 in Calm   3.1 mph 59% 0 in 90 W/m2
19:57 71.2 °F 54.3 °F 29.7 in Calm   2.2 mph 55% 0 in 76 W/m2
20:15 68.4 °F 54 °F 29.7 in Calm     60% 0 in 31 W/m2
20:20 68.9 °F 54 °F 29.7 in Calm     59% 0 in 15 W/m2
20:25 68.2 °F 55 °F 29.7 in Calm     63% 0 in 12 W/m2
20:30 66.6 °F 54.9 °F 29.7 in Calm     66% 0 in 7 W/m2
20:35 66 °F 54.9 °F 29.7 in Calm     67% 0 in 4 W/m2
20:40 65.3 °F 54.5 °F 29.7 in Calm     68% 0 in 2 W/m2
20:45 64.8 °F 54.3 °F 29.7 in Calm   1.6 mph 69% 0 in 0 W/m2
20:50 64 °F 54.5 °F 29.7 in NW 1.6 mph 2.2 mph 71% 0 in 0 W/m2
20:55 63.9 °F 54.7 °F 29.7 in Calm   2.2 mph 72% 0 in 0 W/m2
21:00 63.5 °F 54.7 °F 29.7 in NNW 0.7 mph 3.1 mph 73% 0 in 0 W/m2
21:05 63.1 °F 54.7 °F 29.7 in Calm   3.1 mph 74% 0 in 0 W/m2
21:10 63.1 °F 54.7 °F 29.7 in Calm   2.2 mph 74% 0 in 0 W/m2
21:15 62.6 °F 54.1 °F 29.7 in NNW 1.6 mph 2.2 mph 74% 0 in 0 W/m2
21:20 62.4 °F 54.3 °F 29.7 in NNW 2.2 mph 3.8 mph 75% 0 in 0 W/m2
21:25 62.2 °F 54 °F 29.7 in NNW 0.7 mph 3.8 mph 74% 0 in 0 W/m2
21:30 61.5 °F 53.2 °F 29.7 in NW 1.6 mph 3.8 mph 74% 0 in 0 W/m2
21:35 61.9 °F 53.4 °F 29.7 in NNW 1.6 mph 3.8 mph 74% 0 in 0 W/m2
21:40 61.7 °F 53.1 °F 29.7 in North 2.2 mph 3.8 mph 73% 0 in 0 W/m2
21:45 61.7 °F 53.1 °F 29.7 in North 1.6 mph 3.8 mph 73% 0 in 0 W/m2
21:50 61.9 °F 53.1 °F 29.7 in NNW 2.2 mph 3.8 mph 73% 0 in 0 W/m2
21:55 61.5 °F 52.9 °F 29.7 in North 2.2 mph 4.5 mph 73% 0 in 0 W/m2
22:00 61.3 °F 52.3 °F 29.7 in NNW 4.5 mph 6 mph 72% 0 in 0 W/m2
22:01 61.3 °F 52.3 °F 29.7 in NNW 3.1 mph 6 mph 72% 0 in 0 W/m2
22:06 61.5 °F 52 °F 29.7 in NW 3.1 mph 6 mph 71% 0 in 0 W/m2
22:11 61.5 °F 52 °F 29.7 in NW 1.6 mph 5.4 mph 71% 0 in 0 W/m2
22:16 61.2 °F 51.6 °F 29.7 in NNW 0.7 mph 4.5 mph 71% 0 in 0 W/m2
22:21 61 °F 52 °F 29.7 in NNW 1.6 mph 3.1 mph 72% 0 in 0 W/m2
22:26 61 °F 52 °F 29.7 in North 1.6 mph 3.1 mph 72% 0 in 0 W/m2
22:31 60.8 °F 51.6 °F 29.7 in Calm   3.1 mph 72% 0 in 0 W/m2
22:36 60.4 °F 51.8 °F 29.7 in Calm   2.2 mph 73% 0 in 0 W/m2
22:41 60.3 °F 51.6 °F 29.7 in Calm   1.6 mph 73% 0 in 0 W/m2
22:46 60.3 °F 52 °F 29.7 in NW 0.7 mph 3.1 mph 74% 0 in 0 W/m2
22:51 60.3 °F 52 °F 29.7 in NNW 3.1 mph 4.5 mph 74% 0 in 0 W/m2
22:56 60.3 °F 51.6 °F 29.7 in NNW 3.1 mph 4.5 mph 73% 0 in 0 W/m2
23:01 60.4 °F 51.1 °F 29.7 in NNW 3.8 mph 5.4 mph 71% 0 in 0 W/m2
23:06 60.8 °F 50.2 °F 29.7 in NW 2.2 mph 5.4 mph 68% 0 in 0 W/m2
23:11 60.8 °F 49.8 °F 29.7 in NW 3.1 mph 4.5 mph 67% 0 in 0 W/m2
23:16 60.6 °F 50 °F 29.7 in NW 3.1 mph 6 mph 68% 0 in 0 W/m2
23:21 60.6 °F 49.6 °F 29.7 in NW 1.6 mph 6 mph 67% 0 in 0 W/m2
23:26 60.6 °F 49.6 °F 29.7 in NW 3.1 mph 4.5 mph 67% 0 in 0 W/m2
23:31 61 °F 49.1 °F 29.7 in NW 3.1 mph 5.4 mph 65% 0 in 0 W/m2
23:36 61.2 °F 48.9 °F 29.7 in NW 3.1 mph 5.4 mph 64% 0 in 0 W/m2
23:42 61.3 °F 49.1 °F 29.7 in NW 3.8 mph 6.9 mph 64% 0 in 0 W/m2
23:47 61.5 °F 48.7 °F 29.7 in NW 3.1 mph 6.9 mph 63% 0 in 0 W/m2
23:52 61.3 °F 48.7 °F 29.7 in NW 1.6 mph 6 mph 63% 0 in 0 W/m2
23:57 61.2 °F 48.9 °F 29.7 in NW 0.7 mph 4.5 mph 64% 0 in 0 W/m2
Northern Hawkes Bay. New Zealand Historic Data
Compliments of Weather Underground - 2 mb